createdAt,value
2023-03-26T00:02:21.159Z,21.06
2023-03-26T00:06:21.115Z,21.02
2023-03-26T00:10:21.057Z,21.02
2023-03-26T00:14:21.031Z,21.00
2023-03-26T00:18:21.008Z,21.01
2023-03-26T00:22:20.912Z,20.99
2023-03-26T00:26:20.900Z,20.99
2023-03-26T00:30:20.869Z,20.98
2023-03-26T00:34:20.819Z,20.93
2023-03-26T00:38:20.779Z,20.91
2023-03-26T00:42:20.749Z,20.88
2023-03-26T00:46:20.778Z,20.85
2023-03-26T00:50:20.666Z,20.82
2023-03-26T00:54:20.640Z,20.81
2023-03-26T00:58:20.627Z,20.80
2023-03-26T01:02:20.582Z,20.79
2023-03-26T01:06:20.513Z,20.79
2023-03-26T01:10:20.468Z,20.79
2023-03-26T01:14:20.502Z,20.77
2023-03-26T01:18:20.434Z,20.75
2023-03-26T01:22:20.468Z,20.74
2023-03-26T01:26:20.588Z,20.73
2023-03-26T01:30:20.744Z,20.72
2023-03-26T01:34:20.890Z,20.70
2023-03-26T01:38:21.131Z,20.69
2023-03-26T01:42:21.245Z,20.67
2023-03-26T01:46:21.380Z,20.64
2023-03-26T01:50:21.534Z,20.64
2023-03-26T01:54:21.725Z,20.61
2023-03-26T01:58:21.882Z,20.58
2023-03-26T02:02:22.164Z,20.57
2023-03-26T02:06:22.233Z,20.56
2023-03-26T02:10:22.395Z,20.57
2023-03-26T02:14:22.608Z,20.53
2023-03-26T02:18:22.832Z,20.50
2023-03-26T02:22:23.001Z,20.50
2023-03-26T02:26:23.257Z,20.46
2023-03-26T02:30:23.184Z,20.43
2023-03-26T02:34:23.165Z,20.41
2023-03-26T02:38:23.101Z,20.39
2023-03-26T02:42:23.095Z,20.37
2023-03-26T02:46:23.108Z,20.38
2023-03-26T02:50:23.024Z,20.36
2023-03-26T02:54:22.944Z,20.34
2023-03-26T02:58:22.926Z,20.33
2023-03-26T03:02:22.937Z,20.33
2023-03-26T03:06:23.016Z,20.30
2023-03-26T03:10:22.972Z,20.28
2023-03-26T03:14:22.894Z,20.27
2023-03-26T03:18:22.852Z,20.26
2023-03-26T03:22:22.822Z,20.24
2023-03-26T03:26:22.834Z,20.24
2023-03-26T03:30:22.774Z,20.21
2023-03-26T03:34:22.725Z,20.20
2023-03-26T03:38:22.696Z,20.19
2023-03-26T03:42:22.646Z,20.19
2023-03-26T03:46:22.633Z,20.15
2023-03-26T03:50:22.567Z,20.14
2023-03-26T03:54:22.543Z,20.11
2023-03-26T03:58:22.512Z,20.09
2023-03-26T04:02:22.605Z,20.10
2023-03-26T04:06:22.505Z,20.09
2023-03-26T04:10:22.498Z,20.06
2023-03-26T04:14:22.474Z,20.04
2023-03-26T04:18:22.446Z,20.02
2023-03-26T04:22:22.477Z,20.03
2023-03-26T04:26:22.425Z,20.01
2023-03-26T04:30:22.454Z,20.00
2023-03-26T04:34:22.383Z,20.01
2023-03-26T04:38:22.407Z,19.98
2023-03-26T04:42:22.399Z,19.98
2023-03-26T04:46:22.388Z,19.96
2023-03-26T04:50:22.397Z,19.96
2023-03-26T04:54:22.346Z,19.95
2023-03-26T04:58:22.382Z,19.93
2023-03-26T05:02:22.392Z,19.90
2023-03-26T05:06:22.391Z,19.87
2023-03-26T05:10:22.422Z,19.86
2023-03-26T05:14:22.389Z,19.85
2023-03-26T05:18:22.372Z,19.84
2023-03-26T05:22:22.363Z,19.83
2023-03-26T05:26:22.366Z,19.80
2023-03-26T05:30:22.435Z,19.80
2023-03-26T05:34:22.323Z,19.79
2023-03-26T05:38:22.325Z,19.78
2023-03-26T05:42:22.280Z,19.79
2023-03-26T05:46:22.311Z,19.76
2023-03-26T05:50:22.311Z,19.76
2023-03-26T05:54:22.302Z,19.76
2023-03-26T05:58:22.282Z,19.75
2023-03-26T06:02:22.361Z,19.72
2023-03-26T06:06:22.322Z,19.73
2023-03-26T06:10:22.322Z,19.72
2023-03-26T06:14:22.328Z,19.69
2023-03-26T06:18:22.363Z,19.70
2023-03-26T06:22:22.386Z,19.70
2023-03-26T06:26:22.381Z,19.72
2023-03-26T06:30:22.497Z,19.72
2023-03-26T06:34:22.418Z,19.71
2023-03-26T06:38:22.411Z,19.71
2023-03-26T06:42:22.451Z,19.73
2023-03-26T06:46:23.409Z,19.73
2023-03-26T06:50:22.360Z,19.74
2023-03-26T06:54:22.366Z,19.73
2023-03-26T06:58:22.279Z,19.74
2023-03-26T07:02:22.388Z,19.73
2023-03-26T07:06:22.222Z,19.73
2023-03-26T07:10:22.184Z,19.70
2023-03-26T07:14:22.174Z,19.72
2023-03-26T07:18:22.080Z,19.72
2023-03-26T07:22:22.444Z,19.74
2023-03-26T07:26:22.165Z,19.76
2023-03-26T07:30:22.242Z,19.80
2023-03-26T07:34:22.144Z,19.79
2023-03-26T07:38:22.156Z,19.76
2023-03-26T07:42:22.172Z,19.77
2023-03-26T07:46:22.229Z,19.80
2023-03-26T07:50:22.255Z,19.83
2023-03-26T07:54:22.144Z,19.87
2023-03-26T07:58:22.168Z,19.89
2023-03-26T08:02:22.236Z,19.93
2023-03-26T08:06:22.188Z,19.90
2023-03-26T08:10:22.211Z,19.93
2023-03-26T08:14:22.176Z,19.94
2023-03-26T08:18:22.234Z,19.92
2023-03-26T08:22:22.240Z,19.92
2023-03-26T08:26:22.240Z,19.91
2023-03-26T08:30:22.234Z,19.91
2023-03-26T08:34:22.240Z,19.93
2023-03-26T08:38:22.282Z,19.96
2023-03-26T08:42:22.321Z,19.97
2023-03-26T08:46:22.326Z,19.95
2023-03-26T08:50:22.865Z,19.93
2023-03-26T08:54:22.392Z,19.95
2023-03-26T08:58:22.377Z,20.00
2023-03-26T09:02:22.403Z,20.02
2023-03-26T09:06:24.230Z,20.04
2023-03-26T09:10:22.416Z,20.00
2023-03-26T09:14:22.351Z,19.99
2023-03-26T09:18:22.336Z,19.97
2023-03-26T09:22:22.314Z,19.95
2023-03-26T09:26:22.266Z,19.95
2023-03-26T09:30:22.233Z,19.97
2023-03-26T09:34:22.191Z,19.99
2023-03-26T09:38:22.142Z,20.00
2023-03-26T09:42:22.123Z,20.01
2023-03-26T09:46:22.153Z,20.05
2023-03-26T09:50:22.050Z,20.05
2023-03-26T09:54:22.010Z,20.06
2023-03-26T09:58:22.002Z,20.09
2023-03-26T10:02:21.961Z,20.12
2023-03-26T10:06:22.900Z,20.13
2023-03-26T10:10:21.914Z,20.16
2023-03-26T10:14:21.881Z,20.15
2023-03-26T10:18:27.910Z,20.17
2023-03-26T10:22:22.772Z,20.17
2023-03-26T10:26:21.731Z,20.16
2023-03-26T10:30:21.685Z,20.16
2023-03-26T10:34:29.352Z,20.15
2023-03-26T10:38:22.619Z,20.11
2023-03-26T10:42:21.568Z,20.11
2023-03-26T10:46:21.581Z,20.10
2023-03-26T10:50:22.738Z,20.10
2023-03-26T10:54:21.488Z,20.09
2023-03-26T10:58:21.436Z,20.08
2023-03-26T11:02:29.260Z,20.08
2023-03-26T11:06:22.388Z,20.09
2023-03-26T11:10:21.362Z,20.11
2023-03-26T11:14:31.831Z,20.14
2023-03-26T11:18:22.471Z,20.15
2023-03-26T11:22:21.229Z,20.17
2023-03-26T11:26:21.257Z,20.20
2023-03-26T11:30:21.145Z,20.23
2023-03-26T11:34:21.131Z,20.22
2023-03-26T11:38:21.117Z,20.25
2023-03-26T11:42:21.049Z,20.29
2023-03-26T11:46:21.096Z,20.33
2023-03-26T11:50:21.010Z,20.36
2023-03-26T11:54:21.076Z,20.37
2023-03-26T11:58:21.093Z,20.35
2023-03-26T12:02:21.180Z,20.35
2023-03-26T12:06:21.142Z,20.32
2023-03-26T12:10:21.204Z,20.30
2023-03-26T12:14:21.175Z,20.29
2023-03-26T12:18:21.221Z,20.26
2023-03-26T12:22:21.161Z,20.25
2023-03-26T12:26:21.115Z,20.24
2023-03-26T12:30:21.167Z,20.23
2023-03-26T12:34:21.105Z,20.23
2023-03-26T12:38:21.058Z,20.22
2023-03-26T12:44:41.739Z,20.20
2023-03-26T12:47:57.366Z,20.21
2023-03-26T12:50:34.190Z,20.21
2023-03-26T12:54:21.934Z,20.21
2023-03-26T12:58:20.911Z,20.22
2023-03-26T13:02:20.971Z,20.22
2023-03-26T13:06:20.826Z,20.22
2023-03-26T13:10:20.761Z,20.25
2023-03-26T13:14:20.746Z,20.31
2023-03-26T13:18:20.695Z,20.33
2023-03-26T13:22:20.665Z,20.37
2023-03-26T13:26:20.623Z,20.37
2023-03-26T13:30:20.585Z,20.37
2023-03-26T13:34:20.563Z,20.31
2023-03-26T13:38:20.532Z,20.28
2023-03-26T13:42:20.491Z,20.26
2023-03-26T13:46:20.546Z,20.26
2023-03-26T13:50:20.446Z,20.22
2023-03-26T13:54:20.372Z,20.21
2023-03-26T13:58:20.409Z,20.20
2023-03-26T14:02:20.281Z,20.18
2023-03-26T14:06:20.246Z,20.17
2023-03-26T14:10:20.204Z,20.17
2023-03-26T14:14:20.217Z,20.15
2023-03-26T14:18:20.164Z,20.12
2023-03-26T14:22:20.131Z,20.11
2023-03-26T14:26:20.071Z,20.11
2023-03-26T14:30:20.045Z,20.10
2023-03-26T14:34:19.986Z,20.11
2023-03-26T14:38:19.967Z,20.10
2023-03-26T14:42:19.963Z,20.09
2023-03-26T14:46:20.032Z,20.08
2023-03-26T14:50:19.979Z,20.07
2023-03-26T14:54:20.064Z,20.06
2023-03-26T14:58:19.982Z,20.05
2023-03-26T15:02:19.981Z,20.03
2023-03-26T15:06:20.002Z,20.02
2023-03-26T15:10:19.990Z,20.01
2023-03-26T15:14:20.012Z,20.00
2023-03-26T15:18:20.008Z,19.98
2023-03-26T15:22:20.038Z,19.95
2023-03-26T15:26:20.030Z,19.93
2023-03-26T15:30:20.034Z,19.93
2023-03-26T15:34:20.015Z,19.92
2023-03-26T15:38:19.981Z,19.90
2023-03-26T15:42:20.007Z,19.89
2023-03-26T15:46:19.998Z,19.90
2023-03-26T15:50:19.981Z,19.89
2023-03-26T15:54:19.977Z,19.88
2023-03-26T15:58:19.931Z,19.89
2023-03-26T16:02:19.957Z,19.88
2023-03-26T16:06:19.919Z,19.86
2023-03-26T16:10:19.938Z,19.85
2023-03-26T16:14:21.393Z,19.83
2023-03-26T16:18:19.900Z,19.83
2023-03-26T16:22:19.872Z,19.82
2023-03-26T16:26:19.818Z,19.81
2023-03-26T16:30:20.862Z,19.79
2023-03-26T16:34:19.740Z,19.78
2023-03-26T16:38:19.710Z,19.78
2023-03-26T16:42:19.670Z,19.77
2023-03-26T16:46:19.639Z,19.77
2023-03-26T16:50:19.591Z,19.77
2023-03-26T16:54:19.582Z,19.77
2023-03-26T16:58:19.494Z,19.75
2023-03-26T17:02:19.529Z,19.73
2023-03-26T17:06:19.453Z,19.73
2023-03-26T17:10:19.404Z,19.73
2023-03-26T17:14:19.371Z,19.72
2023-03-26T17:18:19.430Z,19.72
2023-03-26T17:22:19.297Z,19.72
2023-03-26T17:26:19.268Z,19.68
2023-03-26T17:30:19.223Z,19.68
2023-03-26T17:34:19.226Z,19.65
2023-03-26T17:38:19.167Z,19.64
2023-03-26T17:42:19.191Z,19.62
2023-03-26T17:46:19.238Z,19.60
2023-03-26T17:50:19.281Z,19.60
2023-03-26T17:54:19.337Z,19.57
2023-03-26T17:58:19.399Z,19.56
2023-03-26T18:02:19.513Z,19.56
2023-03-26T18:06:19.590Z,19.55
2023-03-26T18:10:19.657Z,19.55
2023-03-26T18:14:19.723Z,19.54
2023-03-26T18:18:19.892Z,19.52
2023-03-26T18:22:19.966Z,19.53
2023-03-26T18:26:20.025Z,19.52
2023-03-26T18:30:20.123Z,19.49
2023-03-26T18:34:20.228Z,19.47
2023-03-26T18:38:36.072Z,19.48
2023-03-26T18:42:22.656Z,19.47
2023-03-26T18:46:20.362Z,19.45
2023-03-26T18:50:20.219Z,19.44
2023-03-26T18:54:20.182Z,19.44
2023-03-26T18:58:20.168Z,19.43
2023-03-26T19:02:20.214Z,19.43
2023-03-26T19:06:20.109Z,19.39
2023-03-26T19:10:20.239Z,19.38
2023-03-26T19:14:20.343Z,19.38
2023-03-26T19:18:20.449Z,19.39
2023-03-26T19:22:20.640Z,19.37
2023-03-26T19:26:20.683Z,19.36
2023-03-26T19:30:20.828Z,19.35
2023-03-26T19:34:21.004Z,19.33
2023-03-26T19:38:21.141Z,19.30
2023-03-26T19:42:21.297Z,19.30
2023-03-26T19:46:21.468Z,19.29
2023-03-26T19:50:21.626Z,19.28
2023-03-26T19:54:21.788Z,19.27
2023-03-26T19:58:21.977Z,19.26
2023-03-26T20:02:22.222Z,19.25
2023-03-26T20:06:28.116Z,19.24
2023-03-26T20:10:23.275Z,19.26
2023-03-26T20:14:22.235Z,19.27
2023-03-26T20:18:22.322Z,19.26
2023-03-26T20:22:22.493Z,19.26
2023-03-26T20:26:22.691Z,19.25
2023-03-26T20:30:36.793Z,19.24
2023-03-26T20:34:23.818Z,19.22
2023-03-26T20:38:32.869Z,19.20
2023-03-26T20:42:23.769Z,19.19
2023-03-26T20:46:22.699Z,19.18
2023-03-26T20:50:22.786Z,19.16
2023-03-26T20:54:23.101Z,19.16
2023-03-26T20:58:31.237Z,19.16
2023-03-26T21:02:24.277Z,19.15
2023-03-26T21:06:23.166Z,19.14
2023-03-26T21:10:23.320Z,19.12
2023-03-26T21:14:23.569Z,19.13
2023-03-26T21:18:23.778Z,19.12
2023-03-26T21:22:23.965Z,19.12
2023-03-26T21:26:23.957Z,19.12
2023-03-26T21:30:23.908Z,19.10
2023-03-26T21:34:23.871Z,19.10
2023-03-26T21:38:23.833Z,19.08
2023-03-26T21:42:23.805Z,19.09
2023-03-26T21:46:24.692Z,19.07
2023-03-26T21:50:23.750Z,19.05
2023-03-26T21:54:23.701Z,19.04
2023-03-26T21:58:23.643Z,19.02
2023-03-26T22:02:23.834Z,19.03
2023-03-26T22:06:23.773Z,19.01
2023-03-26T22:10:23.740Z,19.02
2023-03-26T22:14:23.676Z,19.01
2023-03-26T22:18:23.658Z,19.01
2023-03-26T22:22:23.614Z,19.00
2023-03-26T22:26:23.578Z,18.98
2023-03-26T22:30:23.557Z,18.96
2023-03-26T22:34:23.524Z,18.96
2023-03-26T22:38:23.486Z,18.94
2023-03-26T22:42:23.662Z,18.94
2023-03-26T22:46:23.864Z,18.93
2023-03-26T22:50:23.988Z,18.92
2023-03-26T22:54:24.100Z,18.94
2023-03-26T22:58:24.033Z,18.92
2023-03-26T23:02:24.096Z,18.92
2023-03-26T23:06:23.969Z,18.90
2023-03-26T23:10:23.942Z,18.91
2023-03-26T23:14:23.857Z,18.88
2023-03-26T23:18:23.855Z,18.88
2023-03-26T23:22:23.794Z,18.86
2023-03-26T23:26:23.791Z,18.85
2023-03-26T23:30:23.731Z,18.83
2023-03-26T23:34:23.706Z,18.83
2023-03-26T23:38:23.659Z,18.82
2023-03-26T23:42:29.045Z,18.83
2023-03-26T23:46:24.617Z,18.80
2023-03-26T23:50:23.577Z,18.76
2023-03-26T23:54:23.512Z,18.75
2023-03-26T23:58:23.480Z,18.75
